sensor_id;sensor_type;location;lat;lon;timestamp;P1;durP1;ratioP1;P2;durP2;ratioP2
19566;SDS011;9930;49.240;8.548;2022-09-14T00:01:48;6.32;;;3.40;;
19566;SDS011;9930;49.240;8.548;2022-09-14T00:04:18;3.47;;;3.17;;
19566;SDS011;9930;49.240;8.548;2022-09-14T00:06:47;3.50;;;3.20;;
19566;SDS011;9930;49.240;8.548;2022-09-14T00:09:16;3.58;;;3.28;;
19566;SDS011;9930;49.240;8.548;2022-09-14T00:11:49;4.10;;;3.53;;
19566;SDS011;9930;49.240;8.548;2022-09-14T00:14:19;5.18;;;3.75;;
19566;SDS011;9930;49.240;8.548;2022-09-14T00:16:47;4.28;;;3.88;;
19566;SDS011;9930;49.240;8.548;2022-09-14T00:19:20;4.10;;;3.80;;
19566;SDS011;9930;49.240;8.548;2022-09-14T00:21:50;4.63;;;3.92;;
19566;SDS011;9930;49.240;8.548;2022-09-14T00:24:21;6.47;;;4.55;;
19566;SDS011;9930;49.240;8.548;2022-09-14T00:26:51;5.47;;;4.30;;
19566;SDS011;9930;49.240;8.548;2022-09-14T00:29:22;6.65;;;4.63;;
19566;SDS011;9930;49.240;8.548;2022-09-14T00:31:49;4.28;;;3.88;;
19566;SDS011;9930;49.240;8.548;2022-09-14T00:34:17;4.50;;;4.10;;
19566;SDS011;9930;49.240;8.548;2022-09-14T00:36:49;3.97;;;3.55;;
19566;SDS011;9930;49.240;8.548;2022-09-14T00:39:18;5.90;;;3.85;;
19566;SDS011;9930;49.240;8.548;2022-09-14T00:41:51;6.82;;;4.85;;
19566;SDS011;9930;49.240;8.548;2022-09-14T00:46:49;5.13;;;4.38;;
19566;SDS011;9930;49.240;8.548;2022-09-14T00:49:21;5.82;;;5.30;;
19566;SDS011;9930;49.240;8.548;2022-09-14T00:51:54;13.27;;;6.57;;
19566;SDS011;9930;49.240;8.548;2022-09-14T00:54:33;7.60;;;7.00;;
19566;SDS011;9930;49.240;8.548;2022-09-14T00:57:18;7.43;;;6.65;;
19566;SDS011;9930;49.240;8.548;2022-09-14T00:59:49;7.75;;;7.15;;
19566;SDS011;9930;49.240;8.548;2022-09-14T01:02:20;7.97;;;7.15;;
19566;SDS011;9930;49.240;8.548;2022-09-14T01:04:51;8.20;;;7.47;;
19566;SDS011;9930;49.240;8.548;2022-09-14T01:10:37;9.55;;;8.65;;
19566;SDS011;9930;49.240;8.548;2022-09-14T01:16:33;9.43;;;8.57;;
19566;SDS011;9930;49.240;8.548;2022-09-14T01:22:31;9.73;;;8.82;;
19566;SDS011;9930;49.240;8.548;2022-09-14T01:31:23;9.77;;;8.77;;
19566;SDS011;9930;49.240;8.548;2022-09-14T01:37:55;8.35;;;7.63;;
19566;SDS011;9930;49.240;8.548;2022-09-14T01:43:56;8.13;;;7.38;;
19566;SDS011;9930;49.240;8.548;2022-09-14T01:46:09;7.13;;;6.50;;
19566;SDS011;9930;49.240;8.548;2022-09-14T01:48:52;7.38;;;6.68;;
19566;SDS011;9930;49.240;8.548;2022-09-14T01:51:39;8.25;;;7.35;;
19566;SDS011;9930;49.240;8.548;2022-09-14T01:54:19;6.82;;;6.25;;
19566;SDS011;9930;49.240;8.548;2022-09-14T01:57:20;8.43;;;7.43;;
19566;SDS011;9930;49.240;8.548;2022-09-14T01:59:52;8.23;;;7.43;;
19566;SDS011;9930;49.240;8.548;2022-09-14T02:02:26;7.82;;;7.13;;
19566;SDS011;9930;49.240;8.548;2022-09-14T02:05:05;8.95;;;8.05;;
19566;SDS011;9930;49.240;8.548;2022-09-14T02:07:46;9.50;;;8.65;;
19566;SDS011;9930;49.240;8.548;2022-09-14T02:10:14;9.48;;;8.57;;
19566;SDS011;9930;49.240;8.548;2022-09-14T02:12:44;10.20;;;9.20;;
19566;SDS011;9930;49.240;8.548;2022-09-14T02:15:17;9.10;;;8.23;;
19566;SDS011;9930;49.240;8.548;2022-09-14T02:17:48;8.65;;;7.85;;
19566;SDS011;9930;49.240;8.548;2022-09-14T02:20:22;8.95;;;8.15;;
19566;SDS011;9930;49.240;8.548;2022-09-14T02:22:58;9.32;;;8.45;;
19566;SDS011;9930;49.240;8.548;2022-09-14T02:25:24;9.77;;;8.88;;
19566;SDS011;9930;49.240;8.548;2022-09-14T02:27:52;9.73;;;8.73;;
19566;SDS011;9930;49.240;8.548;2022-09-14T02:30:18;8.88;;;8.07;;
19566;SDS011;9930;49.240;8.548;2022-09-14T02:33:00;9.02;;;8.13;;
19566;SDS011;9930;49.240;8.548;2022-09-14T02:35:47;10.07;;;9.05;;
19566;SDS011;9930;49.240;8.548;2022-09-14T02:41:33;9.40;;;8.50;;
19566;SDS011;9930;49.240;8.548;2022-09-14T02:47:25;10.25;;;9.25;;
19566;SDS011;9930;49.240;8.548;2022-09-14T02:50:32;9.75;;;8.75;;
19566;SDS011;9930;49.240;8.548;2022-09-14T02:56:36;9.20;;;8.40;;
19566;SDS011;9930;49.240;8.548;2022-09-14T02:59:02;9.75;;;8.75;;
19566;SDS011;9930;49.240;8.548;2022-09-14T03:01:31;9.55;;;8.63;;
19566;SDS011;9930;49.240;8.548;2022-09-14T03:03:59;10.27;;;9.32;;
19566;SDS011;9930;49.240;8.548;2022-09-14T03:06:25;10.23;;;9.13;;
19566;SDS011;9930;49.240;8.548;2022-09-14T03:08:53;10.30;;;9.35;;
19566;SDS011;9930;49.240;8.548;2022-09-14T03:11:19;10.00;;;9.10;;
19566;SDS011;9930;49.240;8.548;2022-09-14T03:13:49;11.05;;;9.60;;
19566;SDS011;9930;49.240;8.548;2022-09-14T03:16:17;10.52;;;9.52;;
19566;SDS011;9930;49.240;8.548;2022-09-14T03:18:47;10.10;;;9.18;;
19566;SDS011;9930;49.240;8.548;2022-09-14T03:21:16;10.60;;;9.50;;
19566;SDS011;9930;49.240;8.548;2022-09-14T03:23:48;10.85;;;9.75;;
19566;SDS011;9930;49.240;8.548;2022-09-14T03:26:22;10.18;;;9.27;;
19566;SDS011;9930;49.240;8.548;2022-09-14T03:28:50;10.13;;;9.23;;
19566;SDS011;9930;49.240;8.548;2022-09-14T03:31:19;10.18;;;9.18;;
19566;SDS011;9930;49.240;8.548;2022-09-14T03:33:52;10.43;;;9.52;;
19566;SDS011;9930;49.240;8.548;2022-09-14T03:36:22;10.38;;;9.40;;
19566;SDS011;9930;49.240;8.548;2022-09-14T03:38:51;9.73;;;8.88;;
19566;SDS011;9930;49.240;8.548;2022-09-14T03:41:20;9.02;;;8.13;;
19566;SDS011;9930;49.240;8.548;2022-09-14T03:43:48;9.93;;;8.95;;
19566;SDS011;9930;49.240;8.548;2022-09-14T03:46:17;9.90;;;9.00;;
19566;SDS011;9930;49.240;8.548;2022-09-14T03:48:49;9.35;;;8.55;;
19566;SDS011;9930;49.240;8.548;2022-09-14T03:51:19;10.25;;;9.18;;
19566;SDS011;9930;49.240;8.548;2022-09-14T03:53:47;9.80;;;8.73;;
19566;SDS011;9930;49.240;8.548;2022-09-14T03:56:17;9.50;;;8.68;;
19566;SDS011;9930;49.240;8.548;2022-09-14T03:58:49;9.70;;;8.80;;
19566;SDS011;9930;49.240;8.548;2022-09-14T04:01:19;9.98;;;8.98;;
19566;SDS011;9930;49.240;8.548;2022-09-14T04:03:48;9.73;;;8.82;;
19566;SDS011;9930;49.240;8.548;2022-09-14T04:06:17;10.10;;;9.10;;
19566;SDS011;9930;49.240;8.548;2022-09-14T04:08:47;9.00;;;8.20;;
19566;SDS011;9930;49.240;8.548;2022-09-14T04:11:19;9.70;;;8.80;;
19566;SDS011;9930;49.240;8.548;2022-09-14T04:13:48;8.80;;;7.97;;
19566;SDS011;9930;49.240;8.548;2022-09-14T04:16:18;8.82;;;7.97;;
19566;SDS011;9930;49.240;8.548;2022-09-14T04:18:48;9.77;;;8.88;;
19566;SDS011;9930;49.240;8.548;2022-09-14T04:21:20;9.38;;;8.57;;
19566;SDS011;9930;49.240;8.548;2022-09-14T04:23:54;9.85;;;8.85;;
19566;SDS011;9930;49.240;8.548;2022-09-14T04:26:24;8.95;;;8.15;;
19566;SDS011;9930;49.240;8.548;2022-09-14T04:28:53;9.13;;;8.23;;
19566;SDS011;9930;49.240;8.548;2022-09-14T04:31:20;8.65;;;7.85;;
19566;SDS011;9930;49.240;8.548;2022-09-14T04:33:47;8.80;;;7.90;;
19566;SDS011;9930;49.240;8.548;2022-09-14T04:36:19;7.80;;;7.05;;
19566;SDS011;9930;49.240;8.548;2022-09-14T04:38:54;7.97;;;7.18;;
19566;SDS011;9930;49.240;8.548;2022-09-14T04:41:24;9.05;;;8.15;;
19566;SDS011;9930;49.240;8.548;2022-09-14T04:43:51;7.90;;;7.18;;
19566;SDS011;9930;49.240;8.548;2022-09-14T04:46:20;7.70;;;6.93;;
19566;SDS011;9930;49.240;8.548;2022-09-14T04:48:56;7.13;;;6.53;;
19566;SDS011;9930;49.240;8.548;2022-09-14T04:51:23;7.63;;;6.93;;
19566;SDS011;9930;49.240;8.548;2022-09-14T04:53:54;7.28;;;6.63;;
19566;SDS011;9930;49.240;8.548;2022-09-14T04:56:25;7.40;;;6.78;;
19566;SDS011;9930;49.240;8.548;2022-09-14T04:58:57;7.40;;;6.80;;
19566;SDS011;9930;49.240;8.548;2022-09-14T05:01:30;7.50;;;6.88;;
19566;SDS011;9930;49.240;8.548;2022-09-14T05:04:01;7.60;;;6.93;;
19566;SDS011;9930;49.240;8.548;2022-09-14T05:06:30;7.47;;;6.80;;
19566;SDS011;9930;49.240;8.548;2022-09-14T05:09:00;7.15;;;6.55;;
19566;SDS011;9930;49.240;8.548;2022-09-14T05:11:30;7.38;;;6.75;;
19566;SDS011;9930;49.240;8.548;2022-09-14T05:14:01;7.32;;;6.63;;
19566;SDS011;9930;49.240;8.548;2022-09-14T05:16:31;7.07;;;6.47;;
19566;SDS011;9930;49.240;8.548;2022-09-14T05:19:01;7.18;;;6.57;;
19566;SDS011;9930;49.240;8.548;2022-09-14T05:21:34;6.38;;;5.85;;
19566;SDS011;9930;49.240;8.548;2022-09-14T05:24:05;6.50;;;5.90;;
19566;SDS011;9930;49.240;8.548;2022-09-14T05:26:44;5.85;;;5.35;;
19566;SDS011;9930;49.240;8.548;2022-09-14T05:29:18;6.13;;;5.60;;
19566;SDS011;9930;49.240;8.548;2022-09-14T05:31:49;6.20;;;5.60;;
19566;SDS011;9930;49.240;8.548;2022-09-14T05:34:22;7.18;;;6.57;;
19566;SDS011;9930;49.240;8.548;2022-09-14T05:36:49;6.95;;;6.35;;
19566;SDS011;9930;49.240;8.548;2022-09-14T05:39:17;6.85;;;6.25;;
19566;SDS011;9930;49.240;8.548;2022-09-14T05:41:53;6.75;;;6.15;;
19566;SDS011;9930;49.240;8.548;2022-09-14T05:44:19;6.50;;;5.90;;
19566;SDS011;9930;49.240;8.548;2022-09-14T05:46:47;7.00;;;6.40;;
19566;SDS011;9930;49.240;8.548;2022-09-14T05:49:16;6.50;;;5.90;;
19566;SDS011;9930;49.240;8.548;2022-09-14T05:51:45;7.05;;;6.35;;
19566;SDS011;9930;49.240;8.548;2022-09-14T05:54:18;7.85;;;7.15;;
19566;SDS011;9930;49.240;8.548;2022-09-14T05:56:48;8.45;;;7.60;;
19566;SDS011;9930;49.240;8.548;2022-09-14T05:59:18;8.65;;;7.85;;
19566;SDS011;9930;49.240;8.548;2022-09-14T06:01:50;8.75;;;7.95;;
19566;SDS011;9930;49.240;8.548;2022-09-14T06:04:17;7.90;;;7.20;;
19566;SDS011;9930;49.240;8.548;2022-09-14T06:06:49;8.10;;;7.40;;
19566;SDS011;9930;49.240;8.548;2022-09-14T06:09:15;7.60;;;6.90;;
19566;SDS011;9930;49.240;8.548;2022-09-14T06:11:44;8.20;;;7.50;;
19566;SDS011;9930;49.240;8.548;2022-09-14T06:14:14;7.65;;;7.00;;
19566;SDS011;9930;49.240;8.548;2022-09-14T06:16:47;8.45;;;7.75;;
19566;SDS011;9930;49.240;8.548;2022-09-14T06:19:14;7.70;;;7.10;;
19566;SDS011;9930;49.240;8.548;2022-09-14T06:21:44;8.10;;;7.43;;
19566;SDS011;9930;49.240;8.548;2022-09-14T06:24:14;8.18;;;7.47;;
19566;SDS011;9930;49.240;8.548;2022-09-14T06:26:44;6.50;;;6.00;;
19566;SDS011;9930;49.240;8.548;2022-09-14T06:29:14;7.85;;;7.07;;
19566;SDS011;9930;49.240;8.548;2022-09-14T06:31:44;7.60;;;6.90;;
19566;SDS011;9930;49.240;8.548;2022-09-14T06:34:13;7.65;;;7.05;;
19566;SDS011;9930;49.240;8.548;2022-09-14T06:36:39;8.32;;;7.60;;
19566;SDS011;9930;49.240;8.548;2022-09-14T06:39:05;8.25;;;7.50;;
19566;SDS011;9930;49.240;8.548;2022-09-14T06:41:30;7.38;;;6.78;;
19566;SDS011;9930;49.240;8.548;2022-09-14T06:43:58;7.32;;;6.72;;
19566;SDS011;9930;49.240;8.548;2022-09-14T06:46:28;7.45;;;6.75;;
19566;SDS011;9930;49.240;8.548;2022-09-14T06:48:58;6.68;;;6.18;;
19566;SDS011;9930;49.240;8.548;2022-09-14T06:51:37;6.90;;;6.30;;
19566;SDS011;9930;49.240;8.548;2022-09-14T06:54:09;6.35;;;5.85;;
19566;SDS011;9930;49.240;8.548;2022-09-14T06:56:38;6.35;;;5.85;;
19566;SDS011;9930;49.240;8.548;2022-09-14T06:59:06;7.55;;;6.85;;
19566;SDS011;9930;49.240;8.548;2022-09-14T07:01:37;7.15;;;6.55;;
19566;SDS011;9930;49.240;8.548;2022-09-14T07:04:03;7.72;;;7.03;;
19566;SDS011;9930;49.240;8.548;2022-09-14T07:06:31;7.65;;;7.05;;
19566;SDS011;9930;49.240;8.548;2022-09-14T07:09:07;6.80;;;6.20;;
19566;SDS011;9930;49.240;8.548;2022-09-14T07:11:34;6.93;;;6.32;;
19566;SDS011;9930;49.240;8.548;2022-09-14T07:14:03;6.38;;;5.85;;
19566;SDS011;9930;49.240;8.548;2022-09-14T07:16:30;7.18;;;6.57;;
19566;SDS011;9930;49.240;8.548;2022-09-14T07:18:59;5.95;;;5.45;;
19566;SDS011;9930;49.240;8.548;2022-09-14T07:21:28;6.57;;;6.07;;
19566;SDS011;9930;49.240;8.548;2022-09-14T07:23:58;6.90;;;6.30;;
19566;SDS011;9930;49.240;8.548;2022-09-14T07:26:37;6.97;;;6.35;;
19566;SDS011;9930;49.240;8.548;2022-09-14T07:29:08;5.85;;;5.35;;
19566;SDS011;9930;49.240;8.548;2022-09-14T07:34:21;7.40;;;6.70;;
19566;SDS011;9930;49.240;8.548;2022-09-14T07:36:48;7.03;;;6.43;;
19566;SDS011;9930;49.240;8.548;2022-09-14T07:39:15;6.55;;;5.95;;
19566;SDS011;9930;49.240;8.548;2022-09-14T07:41:48;6.85;;;6.25;;
19566;SDS011;9930;49.240;8.548;2022-09-14T07:44:15;6.43;;;5.93;;
19566;SDS011;9930;49.240;8.548;2022-09-14T07:46:52;6.32;;;5.80;;
19566;SDS011;9930;49.240;8.548;2022-09-14T07:49:19;6.75;;;5.93;;
19566;SDS011;9930;49.240;8.548;2022-09-14T07:51:51;6.22;;;5.72;;
19566;SDS011;9930;49.240;8.548;2022-09-14T07:54:18;5.35;;;4.95;;
19566;SDS011;9930;49.240;8.548;2022-09-14T07:56:49;5.95;;;5.45;;
19566;SDS011;9930;49.240;8.548;2022-09-14T07:59:16;5.88;;;5.38;;
19566;SDS011;9930;49.240;8.548;2022-09-14T08:01:49;5.40;;;5.00;;
19566;SDS011;9930;49.240;8.548;2022-09-14T08:04:16;6.03;;;5.53;;
19566;SDS011;9930;49.240;8.548;2022-09-14T08:06:46;5.80;;;5.30;;
19566;SDS011;9930;49.240;8.548;2022-09-14T08:09:14;5.53;;;5.03;;
19566;SDS011;9930;49.240;8.548;2022-09-14T08:11:44;5.53;;;5.03;;
19566;SDS011;9930;49.240;8.548;2022-09-14T08:14:18;5.72;;;5.22;;
19566;SDS011;9930;49.240;8.548;2022-09-14T08:16:45;5.10;;;4.60;;
19566;SDS011;9930;49.240;8.548;2022-09-14T08:19:15;5.47;;;4.95;;
19566;SDS011;9930;49.240;8.548;2022-09-14T08:21:47;5.07;;;4.68;;
19566;SDS011;9930;49.240;8.548;2022-09-14T08:24:20;5.47;;;5.05;;
19566;SDS011;9930;49.240;8.548;2022-09-14T08:26:47;4.85;;;4.45;;
19566;SDS011;9930;49.240;8.548;2022-09-14T08:29:15;5.18;;;4.68;;
19566;SDS011;9930;49.240;8.548;2022-09-14T08:31:52;4.45;;;4.15;;
19566;SDS011;9930;49.240;8.548;2022-09-14T08:34:19;5.45;;;4.97;;
19566;SDS011;9930;49.240;8.548;2022-09-14T08:36:47;5.50;;;5.10;;
19566;SDS011;9930;49.240;8.548;2022-09-14T08:39:15;5.40;;;4.97;;
19566;SDS011;9930;49.240;8.548;2022-09-14T08:49:41;4.90;;;4.25;;
19566;SDS011;9930;49.240;8.548;2022-09-14T08:52:37;5.03;;;4.57;;
19566;SDS011;9930;49.240;8.548;2022-09-14T08:55:30;5.28;;;4.88;;
19566;SDS011;9930;49.240;8.548;2022-09-14T09:01:17;4.93;;;4.20;;
19566;SDS011;9930;49.240;8.548;2022-09-14T09:04:11;4.28;;;3.97;;
19566;SDS011;9930;49.240;8.548;2022-09-14T09:10:06;4.50;;;4.10;;
19566;SDS011;9930;49.240;8.548;2022-09-14T09:12:42;3.90;;;3.50;;
19566;SDS011;9930;49.240;8.548;2022-09-14T09:18:05;3.80;;;3.50;;
19566;SDS011;9930;49.240;8.548;2022-09-14T09:20:42;3.95;;;3.65;;
19566;SDS011;9930;49.240;8.548;2022-09-14T09:23:23;3.53;;;3.08;;
19566;SDS011;9930;49.240;8.548;2022-09-14T09:28:59;3.05;;;2.83;;
19566;SDS011;9930;49.240;8.548;2022-09-14T09:31:34;3.35;;;3.05;;
19566;SDS011;9930;49.240;8.548;2022-09-14T09:34:09;3.75;;;2.72;;
19566;SDS011;9930;49.240;8.548;2022-09-14T09:36:51;2.90;;;2.70;;
19566;SDS011;9930;49.240;8.548;2022-09-14T09:39:25;2.90;;;2.60;;
19566;SDS011;9930;49.240;8.548;2022-09-14T09:41:55;2.80;;;2.63;;
19566;SDS011;9930;49.240;8.548;2022-09-14T09:47:29;2.55;;;2.35;;
19566;SDS011;9930;49.240;8.548;2022-09-14T09:50:19;2.60;;;2.40;;
19566;SDS011;9930;49.240;8.548;2022-09-14T09:52:51;3.28;;;2.67;;
19566;SDS011;9930;49.240;8.548;2022-09-14T09:55:21;2.30;;;2.10;;
19566;SDS011;9930;49.240;8.548;2022-09-14T09:57:55;3.13;;;2.67;;
19566;SDS011;9930;49.240;8.548;2022-09-14T10:00:24;2.65;;;2.45;;
19566;SDS011;9930;49.240;8.548;2022-09-14T10:02:54;2.67;;;2.47;;
19566;SDS011;9930;49.240;8.548;2022-09-14T10:05:27;3.00;;;2.75;;
19566;SDS011;9930;49.240;8.548;2022-09-14T10:08:00;2.90;;;2.70;;
19566;SDS011;9930;49.240;8.548;2022-09-14T10:13:02;2.40;;;2.20;;
19566;SDS011;9930;49.240;8.548;2022-09-14T10:15:33;2.65;;;2.45;;
19566;SDS011;9930;49.240;8.548;2022-09-14T10:21:23;2.65;;;2.45;;
19566;SDS011;9930;49.240;8.548;2022-09-14T10:23:28;2.45;;;2.17;;
19566;SDS011;9930;49.240;8.548;2022-09-14T10:31:21;3.03;;;2.35;;
19566;SDS011;9930;49.240;8.548;2022-09-14T10:33:55;2.60;;;2.40;;
19566;SDS011;9930;49.240;8.548;2022-09-14T10:36:31;3.15;;;2.67;;
19566;SDS011;9930;49.240;8.548;2022-09-14T10:44:42;2.17;;;2.05;;
19566;SDS011;9930;49.240;8.548;2022-09-14T11:12:38;2.08;;;1.98;;
19566;SDS011;9930;49.240;8.548;2022-09-14T11:15:27;2.35;;;2.15;;
19566;SDS011;9930;49.240;8.548;2022-09-14T11:29:43;3.05;;;2.45;;
19566;SDS011;9930;49.240;8.548;2022-09-14T11:32:37;2.35;;;2.20;;
19566;SDS011;9930;49.240;8.548;2022-09-14T11:38:26;1.98;;;1.88;;
19566;SDS011;9930;49.240;8.548;2022-09-14T11:41:00;2.58;;;2.38;;
19566;SDS011;9930;49.240;8.548;2022-09-14T11:46:34;2.70;;;1.92;;
19566;SDS011;9930;49.240;8.548;2022-09-14T11:52:25;2.47;;;2.00;;
19566;SDS011;9930;49.240;8.548;2022-09-14T11:54:53;2.15;;;1.90;;
19566;SDS011;9930;49.240;8.548;2022-09-14T11:57:25;2.30;;;2.10;;
19566;SDS011;9930;49.240;8.548;2022-09-14T11:59:59;2.30;;;2.10;;
19566;SDS011;9930;49.240;8.548;2022-09-14T12:10:18;2.22;;;2.03;;
19566;SDS011;9930;49.240;8.548;2022-09-14T12:17:52;2.65;;;2.45;;
19566;SDS011;9930;49.240;8.548;2022-09-14T12:20:46;2.20;;;2.08;;
19566;SDS011;9930;49.240;8.548;2022-09-14T12:28:54;2.60;;;2.40;;
19566;SDS011;9930;49.240;8.548;2022-09-14T12:31:33;1.92;;;1.83;;
19566;SDS011;9930;49.240;8.548;2022-09-14T12:34:28;2.25;;;2.05;;
19566;SDS011;9930;49.240;8.548;2022-09-14T12:45:59;2.35;;;2.15;;
19566;SDS011;9930;49.240;8.548;2022-09-14T12:56:27;4.28;;;2.40;;
19566;SDS011;9930;49.240;8.548;2022-09-14T13:05:14;3.25;;;2.67;;
19566;SDS011;9930;49.240;8.548;2022-09-14T13:07:50;2.50;;;2.10;;
19566;SDS011;9930;49.240;8.548;2022-09-14T13:12:56;1.88;;;1.77;;
19566;SDS011;9930;49.240;8.548;2022-09-14T13:15:26;1.63;;;1.23;;
19566;SDS011;9930;49.240;8.548;2022-09-14T13:17:58;2.88;;;1.00;;
19566;SDS011;9930;49.240;8.548;2022-09-14T13:20:31;0.60;;;0.60;;
19566;SDS011;9930;49.240;8.548;2022-09-14T13:23:00;1.70;;;0.70;;
19566;SDS011;9930;49.240;8.548;2022-09-14T13:25:31;0.75;;;0.75;;
19566;SDS011;9930;49.240;8.548;2022-09-14T13:28:04;1.40;;;0.70;;
19566;SDS011;9930;49.240;8.548;2022-09-14T13:30:39;0.70;;;0.70;;
19566;SDS011;9930;49.240;8.548;2022-09-14T13:33:14;1.15;;;0.70;;
19566;SDS011;9930;49.240;8.548;2022-09-14T13:35:49;1.40;;;1.02;;
19566;SDS011;9930;49.240;8.548;2022-09-14T13:38:29;1.42;;;0.90;;
19566;SDS011;9930;49.240;8.548;2022-09-14T13:41:03;1.27;;;0.95;;
19566;SDS011;9930;49.240;8.548;2022-09-14T13:43:50;1.50;;;1.00;;
19566;SDS011;9930;49.240;8.548;2022-09-14T13:46:23;1.33;;;1.02;;
19566;SDS011;9930;49.240;8.548;2022-09-14T13:48:50;0.93;;;0.90;;
19566;SDS011;9930;49.240;8.548;2022-09-14T13:51:24;2.10;;;1.00;;
19566;SDS011;9930;49.240;8.548;2022-09-14T13:53:55;2.13;;;1.35;;
19566;SDS011;9930;49.240;8.548;2022-09-14T13:56:40;2.80;;;1.30;;
19566;SDS011;9930;49.240;8.548;2022-09-14T14:01:56;1.45;;;1.25;;
19566;SDS011;9930;49.240;8.548;2022-09-14T14:09:45;2.28;;;1.23;;
19566;SDS011;9930;49.240;8.548;2022-09-14T14:17:36;1.25;;;1.10;;
19566;SDS011;9930;49.240;8.548;2022-09-14T14:28:25;1.38;;;1.13;;
19566;SDS011;9930;49.240;8.548;2022-09-14T14:30:58;1.58;;;1.30;;
19566;SDS011;9930;49.240;8.548;2022-09-14T14:33:34;1.35;;;1.05;;
19566;SDS011;9930;49.240;8.548;2022-09-14T14:36:07;2.10;;;1.10;;
19566;SDS011;9930;49.240;8.548;2022-09-14T14:38:34;2.22;;;1.30;;
19566;SDS011;9930;49.240;8.548;2022-09-14T14:41:04;1.05;;;0.95;;
19566;SDS011;9930;49.240;8.548;2022-09-14T14:43:30;1.17;;;1.08;;
19566;SDS011;9930;49.240;8.548;2022-09-14T14:45:59;1.30;;;1.20;;
19566;SDS011;9930;49.240;8.548;2022-09-14T14:48:26;2.75;;;1.40;;
19566;SDS011;9930;49.240;8.548;2022-09-14T14:50:53;3.67;;;2.92;;
19566;SDS011;9930;49.240;8.548;2022-09-14T14:53:21;1.95;;;1.70;;
19566;SDS011;9930;49.240;8.548;2022-09-14T14:55:50;1.40;;;1.30;;
19566;SDS011;9930;49.240;8.548;2022-09-14T14:58:20;1.27;;;1.17;;
19566;SDS011;9930;49.240;8.548;2022-09-14T15:00:49;1.92;;;1.20;;
19566;SDS011;9930;49.240;8.548;2022-09-14T15:03:20;1.25;;;1.10;;
19566;SDS011;9930;49.240;8.548;2022-09-14T15:05:48;1.38;;;1.08;;
19566;SDS011;9930;49.240;8.548;2022-09-14T15:08:17;1.23;;;1.13;;
19566;SDS011;9930;49.240;8.548;2022-09-14T15:10:47;1.90;;;1.42;;
19566;SDS011;9930;49.240;8.548;2022-09-14T15:13:21;1.90;;;1.20;;
19566;SDS011;9930;49.240;8.548;2022-09-14T15:15:51;1.30;;;1.20;;
19566;SDS011;9930;49.240;8.548;2022-09-14T15:18:19;1.77;;;1.30;;
19566;SDS011;9930;49.240;8.548;2022-09-14T15:20:50;1.40;;;1.27;;
19566;SDS011;9930;49.240;8.548;2022-09-14T15:23:19;1.65;;;1.20;;
19566;SDS011;9930;49.240;8.548;2022-09-14T15:25:51;1.42;;;1.33;;
19566;SDS011;9930;49.240;8.548;2022-09-14T15:28:20;2.75;;;2.08;;
19566;SDS011;9930;49.240;8.548;2022-09-14T15:30:50;1.70;;;1.40;;
19566;SDS011;9930;49.240;8.548;2022-09-14T15:33:21;1.58;;;1.40;;
19566;SDS011;9930;49.240;8.548;2022-09-14T15:35:58;1.95;;;1.45;;
19566;SDS011;9930;49.240;8.548;2022-09-14T15:38:24;1.42;;;1.33;;
19566;SDS011;9930;49.240;8.548;2022-09-14T15:40:50;1.10;;;1.00;;
19566;SDS011;9930;49.240;8.548;2022-09-14T15:43:19;1.67;;;1.58;;
19566;SDS011;9930;49.240;8.548;2022-09-14T15:45:47;1.42;;;1.20;;
19566;SDS011;9930;49.240;8.548;2022-09-14T15:48:16;1.35;;;1.25;;
19566;SDS011;9930;49.240;8.548;2022-09-14T15:50:50;1.45;;;1.35;;
19566;SDS011;9930;49.240;8.548;2022-09-14T15:53:20;1.38;;;1.25;;
19566;SDS011;9930;49.240;8.548;2022-09-14T15:55:50;1.25;;;1.15;;
19566;SDS011;9930;49.240;8.548;2022-09-14T15:58:19;2.13;;;1.00;;
19566;SDS011;9930;49.240;8.548;2022-09-14T16:00:54;1.20;;;1.10;;
19566;SDS011;9930;49.240;8.548;2022-09-14T16:03:19;1.40;;;1.17;;
19566;SDS011;9930;49.240;8.548;2022-09-14T16:05:49;1.33;;;1.10;;
19566;SDS011;9930;49.240;8.548;2022-09-14T16:08:17;1.40;;;1.30;;
19566;SDS011;9930;49.240;8.548;2022-09-14T16:11:05;1.10;;;1.00;;
19566;SDS011;9930;49.240;8.548;2022-09-14T16:13:34;1.05;;;1.00;;
19566;SDS011;9930;49.240;8.548;2022-09-14T16:16:07;1.30;;;1.23;;
19566;SDS011;9930;49.240;8.548;2022-09-14T16:18:43;1.40;;;1.30;;
19566;SDS011;9930;49.240;8.548;2022-09-14T16:21:23;1.80;;;1.38;;
19566;SDS011;9930;49.240;8.548;2022-09-14T16:23:56;2.83;;;1.30;;
19566;SDS011;9930;49.240;8.548;2022-09-14T16:26:28;1.92;;;1.20;;
19566;SDS011;9930;49.240;8.548;2022-09-14T16:28:56;1.85;;;1.40;;
19566;SDS011;9930;49.240;8.548;2022-09-14T16:31:25;1.80;;;1.38;;
19566;SDS011;9930;49.240;8.548;2022-09-14T16:34:02;1.70;;;1.35;;
19566;SDS011;9930;49.240;8.548;2022-09-14T16:36:34;1.50;;;1.40;;
19566;SDS011;9930;49.240;8.548;2022-09-14T16:39:04;1.63;;;1.10;;
19566;SDS011;9930;49.240;8.548;2022-09-14T16:41:36;1.75;;;1.30;;
19566;SDS011;9930;49.240;8.548;2022-09-14T16:44:04;1.33;;;1.23;;
19566;SDS011;9930;49.240;8.548;2022-09-14T16:46:31;1.50;;;1.30;;
19566;SDS011;9930;49.240;8.548;2022-09-14T16:48:58;2.25;;;1.30;;
19566;SDS011;9930;49.240;8.548;2022-09-14T16:51:25;0.90;;;0.90;;
19566;SDS011;9930;49.240;8.548;2022-09-14T16:53:53;1.30;;;1.15;;
19566;SDS011;9930;49.240;8.548;2022-09-14T16:56:24;2.28;;;1.40;;
19566;SDS011;9930;49.240;8.548;2022-09-14T16:58:53;1.38;;;1.20;;
19566;SDS011;9930;49.240;8.548;2022-09-14T17:01:21;1.40;;;1.30;;
19566;SDS011;9930;49.240;8.548;2022-09-14T17:03:50;1.50;;;1.30;;
19566;SDS011;9930;49.240;8.548;2022-09-14T17:06:28;1.83;;;1.52;;
19566;SDS011;9930;49.240;8.548;2022-09-14T17:08:57;1.67;;;1.20;;
19566;SDS011;9930;49.240;8.548;2022-09-14T17:11:27;2.53;;;1.50;;
19566;SDS011;9930;49.240;8.548;2022-09-14T17:13:58;1.55;;;1.45;;
19566;SDS011;9930;49.240;8.548;2022-09-14T17:16:27;3.10;;;1.60;;
19566;SDS011;9930;49.240;8.548;2022-09-14T17:18:55;3.92;;;2.55;;
19566;SDS011;9930;49.240;8.548;2022-09-14T17:21:25;1.50;;;1.40;;
19566;SDS011;9930;49.240;8.548;2022-09-14T17:23:55;2.28;;;2.08;;
19566;SDS011;9930;49.240;8.548;2022-09-14T17:26:21;1.95;;;1.40;;
19566;SDS011;9930;49.240;8.548;2022-09-14T17:28:55;1.80;;;1.30;;
19566;SDS011;9930;49.240;8.548;2022-09-14T17:31:31;1.48;;;1.30;;
19566;SDS011;9930;49.240;8.548;2022-09-14T17:34:00;1.75;;;1.40;;
19566;SDS011;9930;49.240;8.548;2022-09-14T17:36:34;1.58;;;1.25;;
19566;SDS011;9930;49.240;8.548;2022-09-14T17:39:02;1.50;;;1.40;;
19566;SDS011;9930;49.240;8.548;2022-09-14T17:41:32;1.48;;;1.27;;
19566;SDS011;9930;49.240;8.548;2022-09-14T17:44:01;2.55;;;1.25;;
19566;SDS011;9930;49.240;8.548;2022-09-14T17:46:29;1.45;;;1.35;;
19566;SDS011;9930;49.240;8.548;2022-09-14T17:48:58;1.38;;;1.20;;
19566;SDS011;9930;49.240;8.548;2022-09-14T17:51:35;1.63;;;1.30;;
19566;SDS011;9930;49.240;8.548;2022-09-14T17:54:02;1.20;;;1.10;;
19566;SDS011;9930;49.240;8.548;2022-09-14T17:56:28;1.63;;;1.20;;
19566;SDS011;9930;49.240;8.548;2022-09-14T17:58:59;2.15;;;1.20;;
19566;SDS011;9930;49.240;8.548;2022-09-14T18:01:37;1.55;;;1.10;;
19566;SDS011;9930;49.240;8.548;2022-09-14T18:04:06;1.20;;;1.10;;
19566;SDS011;9930;49.240;8.548;2022-09-14T18:06:38;1.05;;;1.05;;
19566;SDS011;9930;49.240;8.548;2022-09-14T18:09:17;1.10;;;1.02;;
19566;SDS011;9930;49.240;8.548;2022-09-14T18:11:52;1.30;;;1.20;;
19566;SDS011;9930;49.240;8.548;2022-09-14T18:14:23;1.30;;;1.13;;
19566;SDS011;9930;49.240;8.548;2022-09-14T18:16:52;2.70;;;1.10;;
19566;SDS011;9930;49.240;8.548;2022-09-14T18:19:19;1.38;;;1.20;;
19566;SDS011;9930;49.240;8.548;2022-09-14T18:21:50;2.63;;;1.23;;
19566;SDS011;9930;49.240;8.548;2022-09-14T18:24:20;1.38;;;1.27;;
19566;SDS011;9930;49.240;8.548;2022-09-14T18:26:48;2.13;;;1.17;;
19566;SDS011;9930;49.240;8.548;2022-09-14T18:29:16;1.55;;;1.20;;
19566;SDS011;9930;49.240;8.548;2022-09-14T18:31:50;1.63;;;1.00;;
19566;SDS011;9930;49.240;8.548;2022-09-14T18:34:19;1.92;;;1.20;;
19566;SDS011;9930;49.240;8.548;2022-09-14T18:36:50;3.35;;;1.27;;
19566;SDS011;9930;49.240;8.548;2022-09-14T18:39:18;1.40;;;1.20;;